createdAt,value
2022-10-20T00:00:57.386Z,100081.91
2022-10-20T00:03:25.443Z,100080.72
2022-10-20T00:05:53.326Z,100083.34
2022-10-20T00:08:21.238Z,100080.09
2022-10-20T00:10:55.349Z,100083.69
2022-10-20T00:13:23.155Z,100080.28
2022-10-20T00:15:51.310Z,100083.03
2022-10-20T00:18:18.866Z,100088.22
2022-10-20T00:20:46.870Z,100076.84
2022-10-20T00:23:14.479Z,100074.69
2022-10-20T00:25:42.106Z,100076.41
2022-10-20T00:28:10.947Z,100069.41
2022-10-20T00:30:38.442Z,100064.28
2022-10-20T00:33:06.442Z,100061.47
2022-10-20T00:35:38.130Z,100054.25
2022-10-20T00:38:05.763Z,100040.91
2022-10-20T00:40:33.355Z,100034.66
2022-10-20T00:43:00.833Z,100021.44
2022-10-20T00:45:29.662Z,100021.53
2022-10-20T00:48:01.536Z,100015.97
2022-10-20T00:50:33.215Z,100010.47
2022-10-20T00:53:02.518Z,100013.09
2022-10-20T00:55:33.233Z,100002.56
2022-10-20T00:58:02.311Z,100002.47
2022-10-20T01:00:31.842Z,99995.84
2022-10-20T01:03:02.657Z,99994.06
2022-10-20T01:05:30.167Z,99995.16
2022-10-20T01:07:57.621Z,99998.75
2022-10-20T01:10:27.833Z,99989.19
2022-10-20T01:13:03.935Z,99987.66
2022-10-20T01:15:39.506Z,99988.50
2022-10-20T01:18:13.414Z,99975.09
2022-10-20T01:21:04.826Z,99991.34
2022-10-20T01:23:50.253Z,99988.31
2022-10-20T01:26:48.489Z,99985.34
2022-10-20T01:29:25.783Z,99979.56
2022-10-20T01:32:04.870Z,99971.22
2022-10-20T01:34:37.213Z,99967.31
2022-10-20T01:37:08.696Z,99955.41
2022-10-20T01:39:43.803Z,99956.63
2022-10-20T01:42:18.058Z,99947.44
2022-10-20T01:44:49.003Z,99942.50
2022-10-20T01:47:17.946Z,99945.69
2022-10-20T01:49:48.490Z,99949.09
2022-10-20T01:52:17.007Z,99931.53
2022-10-20T01:54:44.581Z,99932.72
2022-10-20T01:57:30.084Z,99929.66
2022-10-20T02:00:07.095Z,99913.16
2022-10-20T02:02:57.417Z,99912.44
2022-10-20T02:05:38.869Z,99910.06
2022-10-20T02:08:13.414Z,99910.22
2022-10-20T02:10:46.589Z,99902.22
2022-10-20T02:13:15.758Z,99912.88
2022-10-20T02:15:48.069Z,99899.91
2022-10-20T02:18:19.986Z,99895.59
2022-10-20T02:20:51.389Z,99894.56
2022-10-20T02:23:19.407Z,99896.84
2022-10-20T02:25:49.420Z,99892.22
2022-10-20T02:28:18.128Z,99890.09
2022-10-20T02:30:48.522Z,99899.34
2022-10-20T02:33:17.720Z,99888.94
2022-10-20T02:35:52.235Z,99891.22
2022-10-20T02:38:19.717Z,99880.38
2022-10-20T02:40:47.511Z,99872.13
2022-10-20T02:43:15.012Z,99853.53
2022-10-20T02:45:42.536Z,99855.59
2022-10-20T02:48:11.422Z,99854.97
2022-10-20T02:50:39.613Z,99852.50
2022-10-20T02:53:07.423Z,99846.63
2022-10-20T02:55:34.923Z,99848.97
2022-10-20T02:58:02.396Z,99842.72
2022-10-20T03:00:31.123Z,99844.25
2022-10-20T03:02:58.614Z,99844.16
2022-10-20T03:05:28.014Z,99849.13
2022-10-20T03:07:55.507Z,99843.00
2022-10-20T03:10:23.005Z,99841.34
2022-10-20T03:12:50.577Z,99845.06
2022-10-20T03:15:18.224Z,99838.31
2022-10-20T03:17:45.734Z,99832.03
2022-10-20T03:20:13.232Z,99830.25
2022-10-20T03:22:42.034Z,99836.75
2022-10-20T03:25:09.740Z,99821.41
2022-10-20T03:27:37.531Z,99827.16
2022-10-20T03:30:06.024Z,99826.94
2022-10-20T03:32:33.797Z,99822.56
2022-10-20T03:35:01.460Z,99820.09
2022-10-20T03:37:28.925Z,99809.25
2022-10-20T03:39:57.737Z,99812.25
2022-10-20T03:42:25.298Z,99809.16
2022-10-20T03:44:52.758Z,99793.34
2022-10-20T03:47:20.294Z,99792.91
2022-10-20T03:49:47.758Z,99780.72
2022-10-20T03:52:15.233Z,99787.19
2022-10-20T03:54:42.692Z,99781.06
2022-10-20T03:57:11.517Z,99789.31
2022-10-20T03:59:38.964Z,99771.88
2022-10-20T04:02:06.626Z,99771.59
2022-10-20T04:04:34.186Z,99771.13
2022-10-20T04:07:01.648Z,99768.59
2022-10-20T04:09:29.135Z,99768.13
2022-10-20T04:11:56.643Z,99780.38
2022-10-20T04:14:27.732Z,99776.50
2022-10-20T04:16:55.197Z,99768.59
2022-10-20T04:19:22.693Z,99761.84
2022-10-20T04:21:50.181Z,99759.13
2022-10-20T04:24:17.683Z,99765.50
2022-10-20T04:26:45.172Z,99770.69
2022-10-20T04:29:12.745Z,99762.22
2022-10-20T04:31:45.240Z,99765.72
2022-10-20T04:34:14.368Z,99744.94
2022-10-20T04:36:41.884Z,99748.59
2022-10-20T04:39:09.935Z,99739.94
2022-10-20T04:41:37.429Z,99733.41
2022-10-20T04:44:05.200Z,99740.25
2022-10-20T04:46:32.733Z,99728.81
2022-10-20T04:49:01.630Z,99719.13
2022-10-20T04:51:29.145Z,99717.06
2022-10-20T04:53:56.661Z,99713.56
2022-10-20T04:56:24.366Z,99709.59
2022-10-20T04:58:52.941Z,99705.44
2022-10-20T05:01:21.805Z,99694.91
2022-10-20T05:03:49.416Z,99694.91
2022-10-20T05:06:20.490Z,99682.47
2022-10-20T05:08:51.606Z,99686.13
2022-10-20T05:11:20.826Z,99688.06
2022-10-20T05:13:48.353Z,99686.50
2022-10-20T05:16:17.385Z,99683.44
2022-10-20T05:18:45.952Z,99667.94
2022-10-20T05:21:15.406Z,99664.81
2022-10-20T05:23:45.089Z,99656.13
2022-10-20T05:26:14.263Z,99657.25
2022-10-20T05:28:45.062Z,99642.97
2022-10-20T05:31:12.598Z,99639.91
2022-10-20T05:33:44.285Z,99638.28
2022-10-20T05:36:15.880Z,99653.94
2022-10-20T05:38:47.246Z,99653.56
2022-10-20T05:41:16.388Z,99647.91
2022-10-20T05:43:43.893Z,99648.19
2022-10-20T05:46:11.373Z,99642.19
2022-10-20T05:48:42.929Z,99644.59
2022-10-20T05:51:14.700Z,99634.56
2022-10-20T05:53:42.914Z,99633.28
2022-10-20T05:56:13.891Z,99626.56
2022-10-20T05:58:43.126Z,99632.19
2022-10-20T06:01:16.948Z,99618.97
2022-10-20T06:03:47.513Z,99625.06
2022-10-20T06:06:14.993Z,99629.84
2022-10-20T06:08:42.544Z,99627.19
2022-10-20T06:11:14.314Z,99631.94
2022-10-20T06:13:42.348Z,99643.88
2022-10-20T06:16:11.811Z,99641.97
2022-10-20T06:18:39.593Z,99642.25
2022-10-20T06:21:08.995Z,99638.84
2022-10-20T06:23:36.487Z,99636.50
2022-10-20T06:26:05.405Z,99638.28
2022-10-20T06:28:36.454Z,99628.47
2022-10-20T06:31:11.822Z,99635.03
2022-10-20T06:33:39.761Z,99639.44
2022-10-20T06:36:07.733Z,99651.50
2022-10-20T06:38:35.411Z,99654.31
2022-10-20T06:41:03.187Z,99661.19
2022-10-20T06:43:30.737Z,99657.00
2022-10-20T06:46:02.130Z,99661.16
2022-10-20T06:48:29.658Z,99646.88
2022-10-20T06:50:57.839Z,99657.13
2022-10-20T06:53:26.148Z,99642.09
2022-10-20T06:55:58.185Z,99640.41
2022-10-20T06:58:25.842Z,99631.19
2022-10-20T07:01:02.646Z,99637.88
2022-10-20T07:03:33.667Z,99627.97
2022-10-20T07:06:01.713Z,99644.19
2022-10-20T07:08:30.340Z,99640.72
2022-10-20T07:11:02.114Z,99636.63
2022-10-20T07:13:30.588Z,99645.13
2022-10-20T07:15:59.083Z,99643.19
2022-10-20T07:18:30.090Z,99652.34
2022-10-20T07:20:58.874Z,99637.47
2022-10-20T07:23:26.596Z,99631.41
2022-10-20T07:26:00.745Z,99627.41
2022-10-20T07:28:28.210Z,99618.22
2022-10-20T07:30:55.756Z,99617.19
2022-10-20T07:33:23.493Z,99610.78
2022-10-20T07:35:52.337Z,99621.97
2022-10-20T07:38:19.864Z,99627.22
2022-10-20T07:40:47.343Z,99622.44
2022-10-20T07:43:14.883Z,99635.97
2022-10-20T07:45:42.420Z,99632.75
2022-10-20T07:48:10.605Z,99638.25
2022-10-20T07:50:40.148Z,99647.50
2022-10-20T07:53:08.988Z,99636.81
2022-10-20T07:55:38.960Z,99623.63
2022-10-20T07:58:06.914Z,99625.97
2022-10-20T08:00:34.461Z,99617.03
2022-10-20T08:03:01.982Z,99612.03
2022-10-20T08:05:29.732Z,99617.28
2022-10-20T08:07:58.262Z,99599.63
2022-10-20T08:10:27.360Z,99598.59
2022-10-20T08:12:54.845Z,99586.63
2022-10-20T08:15:25.203Z,99575.38
2022-10-20T08:17:52.727Z,99561.31
2022-10-20T08:20:22.404Z,99581.88
2022-10-20T08:22:52.444Z,99592.41
2022-10-20T08:25:20.290Z,99592.97
2022-10-20T08:27:49.204Z,99609.81
2022-10-20T08:30:23.723Z,99607.91
2022-10-20T08:32:52.118Z,99605.06
2022-10-20T08:35:19.693Z,99606.16
2022-10-20T08:37:47.206Z,99609.03
2022-10-20T08:40:18.702Z,99592.38
2022-10-20T08:42:47.657Z,99595.06
2022-10-20T08:45:18.238Z,99592.28
2022-10-20T08:47:48.214Z,99580.69
2022-10-20T08:50:18.838Z,99581.13
2022-10-20T08:52:48.215Z,99587.47
2022-10-20T08:55:25.631Z,99594.63
2022-10-20T08:57:53.114Z,99600.63
2022-10-20T09:00:24.142Z,99598.91
2022-10-20T09:02:52.301Z,99593.75
2022-10-20T09:05:24.038Z,99587.84
2022-10-20T09:07:52.229Z,99580.50
2022-10-20T09:10:29.194Z,99588.03
2022-10-20T09:12:57.213Z,99586.25
2022-10-20T09:15:27.344Z,99579.03
2022-10-20T09:17:57.794Z,99578.50
2022-10-20T09:20:28.360Z,99584.75
2022-10-20T09:22:55.955Z,99591.28
2022-10-20T09:25:27.283Z,99595.03
2022-10-20T09:27:56.444Z,99588.72
2022-10-20T09:30:34.224Z,99606.88
2022-10-20T09:33:20.562Z,99597.09
2022-10-20T09:35:49.502Z,99584.81
2022-10-20T09:38:19.678Z,99597.78
2022-10-20T09:40:58.015Z,99594.19
2022-10-20T09:43:27.867Z,99603.06
2022-10-20T09:46:01.552Z,99582.06
2022-10-20T09:48:32.672Z,99584.13
2022-10-20T09:51:01.750Z,99570.69
2022-10-20T09:53:33.318Z,99572.16
2022-10-20T09:56:01.070Z,99568.97
2022-10-20T09:58:31.197Z,99580.97
2022-10-20T10:01:06.585Z,99557.34
2022-10-20T10:03:40.472Z,99557.69
2022-10-20T10:06:22.366Z,99560.13
2022-10-20T10:08:49.899Z,99561.16
2022-10-20T10:11:20.422Z,99554.13
2022-10-20T10:13:50.694Z,99547.84
2022-10-20T10:16:21.672Z,99539.53
2022-10-20T10:18:57.466Z,99536.09
2022-10-20T10:21:25.393Z,99537.16
2022-10-20T10:23:55.606Z,99532.00
2022-10-20T10:26:45.033Z,99559.97
2022-10-20T10:29:24.281Z,99566.31
2022-10-20T10:31:58.782Z,99572.44
2022-10-20T10:35:01.023Z,99576.66
2022-10-20T10:37:32.333Z,99574.69
2022-10-20T10:40:03.455Z,99570.31
2022-10-20T10:42:55.081Z,99586.56
2022-10-20T10:45:41.152Z,99590.75
2022-10-20T10:48:45.547Z,99585.84
2022-10-20T10:51:26.403Z,99592.22
2022-10-20T10:54:11.602Z,99577.09
2022-10-20T10:56:44.980Z,99570.31
2022-10-20T10:59:18.854Z,99568.00
2022-10-20T11:02:10.343Z,99556.81
2022-10-20T11:04:58.117Z,99546.34
2022-10-20T11:07:33.947Z,99544.34
2022-10-20T11:10:11.686Z,99554.75
2022-10-20T11:12:53.530Z,99529.63
2022-10-20T11:15:35.619Z,99534.56
2022-10-20T11:18:10.257Z,99531.03
2022-10-20T11:20:48.234Z,99525.22
2022-10-20T11:23:45.466Z,99523.88
2022-10-20T11:26:23.143Z,99514.94
2022-10-20T11:28:55.590Z,99522.00
2022-10-20T11:31:27.599Z,99510.66
2022-10-20T11:34:01.302Z,99516.34
2022-10-20T11:36:36.806Z,99519.03
2022-10-20T11:39:06.624Z,99507.09
2022-10-20T11:44:13.297Z,99509.03
2022-10-20T11:46:46.880Z,99512.38
2022-10-20T11:49:14.589Z,99517.50
2022-10-20T11:52:09.276Z,99519.66
2022-10-20T11:54:49.036Z,99519.22
2022-10-20T11:57:29.347Z,99532.13
2022-10-20T12:00:11.614Z,99535.31
2022-10-20T12:03:10.992Z,99535.16
2022-10-20T12:06:11.005Z,99533.03
2022-10-20T12:09:06.384Z,99543.78
2022-10-20T12:11:42.866Z,99544.03
2022-10-20T12:14:20.912Z,99531.94
2022-10-20T12:17:13.648Z,99535.31
2022-10-20T12:19:41.793Z,99536.19
2022-10-20T12:22:41.617Z,99535.28
2022-10-20T12:25:36.009Z,99539.94
2022-10-20T12:28:40.553Z,99530.03
2022-10-20T12:31:08.272Z,99520.13
2022-10-20T12:33:39.029Z,99525.44
2022-10-20T12:36:30.220Z,99525.63
2022-10-20T12:39:15.885Z,99518.72
2022-10-20T12:41:57.117Z,99521.91
2022-10-20T12:44:25.389Z,99522.53
2022-10-20T12:46:56.004Z,99523.50
2022-10-20T12:49:29.283Z,99532.53
2022-10-20T12:51:59.716Z,99518.91
2022-10-20T12:54:34.495Z,99505.22
2022-10-20T12:57:06.948Z,99484.38
2022-10-20T12:59:38.880Z,99485.28
2022-10-20T13:02:44.080Z,99508.75
2022-10-20T13:05:48.916Z,99493.09
2022-10-20T13:08:29.425Z,99493.44
2022-10-20T13:11:18.075Z,99488.22
2022-10-20T13:14:05.672Z,99484.84
2022-10-20T13:16:34.922Z,99479.66
2022-10-20T13:19:02.827Z,99482.63
2022-10-20T13:21:35.077Z,99483.44
2022-10-20T13:24:16.137Z,99477.22
2022-10-20T13:26:50.185Z,99472.50
2022-10-20T13:29:25.474Z,99468.13
2022-10-20T13:32:05.855Z,99479.72
2022-10-20T13:34:41.982Z,99489.66
2022-10-20T13:37:23.684Z,99488.22
2022-10-20T13:40:00.366Z,99480.47
2022-10-20T13:42:42.969Z,99488.94
2022-10-20T13:45:22.697Z,99489.94
2022-10-20T13:47:52.989Z,99497.53
2022-10-20T13:50:24.397Z,99501.72
2022-10-20T13:52:55.901Z,99506.66
2022-10-20T13:55:26.034Z,99490.59
2022-10-20T13:57:56.876Z,99476.16
2022-10-20T14:00:29.015Z,99467.50
2022-10-20T14:03:00.156Z,99468.09
2022-10-20T14:05:29.286Z,99477.38
2022-10-20T14:07:57.182Z,99460.22
2022-10-20T14:10:29.958Z,99455.72
2022-10-20T14:12:58.045Z,99452.38
2022-10-20T14:15:31.499Z,99447.25
2022-10-20T14:18:01.204Z,99452.19
2022-10-20T14:20:29.781Z,99456.72
2022-10-20T14:22:59.277Z,99450.00
2022-10-20T14:25:27.829Z,99465.75
2022-10-20T14:27:56.697Z,99465.88
2022-10-20T14:30:26.506Z,99452.13
2022-10-20T14:32:55.770Z,99444.06
2022-10-20T14:35:39.853Z,99435.28
2022-10-20T14:38:17.030Z,99433.13
2022-10-20T14:40:51.657Z,99422.38
2022-10-20T14:43:22.005Z,99416.75
2022-10-20T14:45:55.110Z,99415.06
2022-10-20T14:48:25.292Z,99419.44
2022-10-20T14:50:54.969Z,99413.50
2022-10-20T14:53:34.457Z,99424.09
2022-10-20T14:56:03.650Z,99421.41
2022-10-20T14:58:39.414Z,99422.38
2022-10-20T15:01:22.658Z,99425.41
2022-10-20T15:04:14.346Z,99418.22
2022-10-20T15:06:42.253Z,99442.19
2022-10-20T15:09:18.936Z,99433.03
2022-10-20T15:11:46.715Z,99421.78
2022-10-20T15:14:17.078Z,99419.72
2022-10-20T15:16:46.160Z,99429.94
2022-10-20T15:19:28.845Z,99427.53
2022-10-20T15:22:02.890Z,99428.03
2022-10-20T15:24:30.497Z,99428.25
2022-10-20T15:26:58.609Z,99431.63
2022-10-20T15:29:27.063Z,99434.09
2022-10-20T15:31:54.761Z,99432.78
2022-10-20T15:34:23.938Z,99420.66
2022-10-20T15:36:51.438Z,99422.25
2022-10-20T15:39:18.952Z,99418.19
2022-10-20T15:41:49.018Z,99402.81
2022-10-20T15:44:21.938Z,99402.91
2022-10-20T15:46:52.213Z,99401.94
2022-10-20T15:49:19.904Z,99398.47
2022-10-20T15:51:50.367Z,99401.56
2022-10-20T15:54:21.286Z,99393.25
2022-10-20T15:56:49.104Z,99389.13
2022-10-20T15:59:16.593Z,99378.97
2022-10-20T16:01:44.045Z,99383.88
2022-10-20T16:04:18.456Z,99378.16
2022-10-20T16:06:46.028Z,99377.06
2022-10-20T16:09:16.142Z,99375.03
2022-10-20T16:11:44.092Z,99373.13
2022-10-20T16:14:11.785Z,99372.13
2022-10-20T16:16:39.448Z,99367.81
2022-10-20T16:19:06.969Z,99366.47
2022-10-20T16:21:34.809Z,99361.72
2022-10-20T16:24:02.354Z,99366.53
2022-10-20T16:26:31.187Z,99361.56
2022-10-20T16:28:58.722Z,99370.88
2022-10-20T16:31:26.356Z,99366.19
2022-10-20T16:33:53.840Z,99372.41
2022-10-20T16:36:21.720Z,99367.84
2022-10-20T16:38:49.283Z,99364.94
2022-10-20T16:41:18.117Z,99354.81
2022-10-20T16:43:47.279Z,99367.16
2022-10-20T16:46:16.112Z,99355.88
2022-10-20T16:48:47.740Z,99348.19
2022-10-20T16:51:17.615Z,99359.06
2022-10-20T16:53:45.696Z,99351.28
2022-10-20T16:56:16.661Z,99353.03
2022-10-20T16:58:49.262Z,99348.47
2022-10-20T17:01:18.387Z,99354.56
2022-10-20T17:03:47.665Z,99355.19
2022-10-20T17:06:16.612Z,99360.56
2022-10-20T17:08:44.363Z,99359.19
2022-10-20T17:11:14.134Z,99353.69
2022-10-20T17:13:42.405Z,99354.66
2022-10-20T17:16:13.564Z,99358.38
2022-10-20T17:18:41.120Z,99347.72
2022-10-20T17:21:09.155Z,99357.78
2022-10-20T17:23:41.646Z,99352.81
2022-10-20T17:26:12.722Z,99350.63
2022-10-20T17:28:40.212Z,99353.44
2022-10-20T17:31:08.945Z,99346.56
2022-10-20T17:33:39.087Z,99344.59
2022-10-20T17:36:07.754Z,99348.91
2022-10-20T17:38:36.413Z,99338.16
2022-10-20T17:41:04.809Z,99344.16
2022-10-20T17:43:33.037Z,99350.03
2022-10-20T17:46:02.367Z,99351.69
2022-10-20T17:48:30.436Z,99352.50
2022-10-20T17:51:04.417Z,99362.59
2022-10-20T17:53:33.158Z,99367.97
2022-10-20T17:56:07.449Z,99357.94
2022-10-20T17:58:35.521Z,99363.84
2022-10-20T18:01:10.477Z,99368.03
2022-10-20T18:03:38.709Z,99362.47
2022-10-20T18:06:13.402Z,99367.41
2022-10-20T18:08:41.558Z,99365.88
2022-10-20T18:11:10.584Z,99364.59
2022-10-20T18:13:38.715Z,99360.53
2022-10-20T18:16:08.361Z,99365.88
2022-10-20T18:18:36.154Z,99363.69
2022-10-20T18:21:04.759Z,99369.31
2022-10-20T18:23:36.073Z,99363.50
2022-10-20T18:26:08.423Z,99355.59
2022-10-20T18:28:36.536Z,99354.78
2022-10-20T18:31:08.108Z,99351.00
2022-10-20T18:33:35.608Z,99358.41
2022-10-20T18:36:04.316Z,99343.66
2022-10-20T18:38:36.372Z,99350.88
2022-10-20T18:41:07.936Z,99350.78
2022-10-20T18:43:35.590Z,99341.66
2022-10-20T18:46:04.281Z,99337.53
2022-10-20T18:48:32.426Z,99315.88
2022-10-20T18:51:01.677Z,99321.16
2022-10-20T18:53:30.490Z,99333.94
2022-10-20T18:56:04.075Z,99340.19
2022-10-20T18:58:33.143Z,99332.63
2022-10-20T19:01:02.224Z,99322.03
2022-10-20T19:03:31.398Z,99310.09
2022-10-20T19:06:00.070Z,99310.44
2022-10-20T19:08:27.734Z,99313.75
2022-10-20T19:10:55.250Z,99314.56
2022-10-20T19:13:25.757Z,99311.47
2022-10-20T19:15:53.850Z,99302.28
2022-10-20T19:18:21.778Z,99308.75
2022-10-20T19:20:56.198Z,99304.56
2022-10-20T19:23:24.135Z,99292.88
2022-10-20T19:26:03.544Z,99289.25
2022-10-20T19:28:34.317Z,99291.84
2022-10-20T19:31:02.422Z,99287.00
2022-10-20T19:33:30.392Z,99291.16
2022-10-20T19:35:57.896Z,99283.06
2022-10-20T19:38:25.367Z,99278.06
2022-10-20T19:40:54.355Z,99280.41
2022-10-20T19:43:21.833Z,99276.78
2022-10-20T19:45:50.602Z,99274.72
2022-10-20T19:48:19.827Z,99265.19
2022-10-20T19:50:47.370Z,99265.59
2022-10-20T19:53:14.849Z,99239.91
2022-10-20T19:55:42.316Z,99248.38
2022-10-20T20:00:43.984Z,99252.91
2022-10-20T20:03:12.921Z,99254.47
2022-10-20T20:05:40.403Z,99239.88
2022-10-20T20:08:08.278Z,99247.88
2022-10-20T20:10:36.417Z,99249.19
2022-10-20T20:13:04.533Z,99240.53
2022-10-20T20:15:32.234Z,99241.16
2022-10-20T20:17:59.699Z,99237.03
2022-10-20T20:20:28.550Z,99232.81
2022-10-20T20:22:55.998Z,99222.34
2022-10-20T20:25:23.465Z,99229.50
2022-10-20T20:27:50.920Z,99225.63
2022-10-20T20:30:18.456Z,99234.84
2022-10-20T20:32:47.802Z,99226.72
2022-10-20T20:35:18.329Z,99219.78
2022-10-20T20:37:47.145Z,99216.34
2022-10-20T20:40:14.837Z,99212.91
2022-10-20T20:42:42.288Z,99204.97
2022-10-20T20:45:10.964Z,99209.53
2022-10-20T20:47:38.800Z,99206.94
2022-10-20T20:50:07.554Z,99219.38
2022-10-20T20:52:35.057Z,99226.81
2022-10-20T20:55:04.175Z,99230.59
2022-10-20T20:57:31.628Z,99225.50
2022-10-20T20:59:59.114Z,99210.50
2022-10-20T21:02:26.554Z,99216.59
2022-10-20T21:04:54.022Z,99210.75
2022-10-20T21:07:21.499Z,99206.38
2022-10-20T21:09:49.492Z,99205.75
2022-10-20T21:12:18.306Z,99196.34
2022-10-20T21:14:48.192Z,99199.78
2022-10-20T21:17:15.659Z,99200.63
2022-10-20T21:19:43.157Z,99187.59
2022-10-20T21:22:10.874Z,99195.88
2022-10-20T21:24:38.519Z,99187.25
2022-10-20T21:27:06.346Z,99186.00
2022-10-20T21:29:35.168Z,99184.16
2022-10-20T21:32:02.654Z,99179.78
2022-10-20T21:34:30.301Z,99189.94
2022-10-20T21:36:57.775Z,99189.78
2022-10-20T21:39:25.518Z,99195.25
2022-10-20T21:41:55.959Z,99200.53
2022-10-20T21:44:26.281Z,99189.31
2022-10-20T21:46:59.976Z,99200.75
2022-10-20T21:49:29.654Z,99208.31
2022-10-20T21:52:00.649Z,99212.38
2022-10-20T21:54:29.772Z,99211.28
2022-10-20T21:56:59.531Z,99206.75
2022-10-20T21:59:30.589Z,99211.16
2022-10-20T22:02:00.801Z,99210.69
2022-10-20T22:04:30.034Z,99219.75
2022-10-20T22:06:59.160Z,99216.19
2022-10-20T22:09:29.177Z,99222.31
2022-10-20T22:11:58.869Z,99212.03
2022-10-20T22:14:30.304Z,99209.06
2022-10-20T22:16:59.780Z,99205.16
2022-10-20T22:19:27.496Z,99205.44
2022-10-20T22:21:55.327Z,99211.78
2022-10-20T22:24:23.297Z,99221.34
2022-10-20T22:26:54.869Z,99213.28
2022-10-20T22:29:25.332Z,99213.78
2022-10-20T22:31:52.801Z,99209.50
2022-10-20T22:34:21.765Z,99210.22
2022-10-20T22:36:49.225Z,99201.66
2022-10-20T22:39:19.595Z,99208.38
2022-10-20T22:41:47.081Z,99203.75
2022-10-20T22:44:14.621Z,99207.41
2022-10-20T22:46:42.084Z,99206.38
2022-10-20T22:49:11.989Z,99197.28
2022-10-20T22:51:43.389Z,99203.00
2022-10-20T22:54:13.874Z,99200.22
2022-10-20T22:56:41.349Z,99198.63
2022-10-20T22:59:11.005Z,99198.88
2022-10-20T23:01:38.490Z,99212.94
2022-10-20T23:04:06.247Z,99209.09
2022-10-20T23:06:34.948Z,99213.00
2022-10-20T23:09:06.947Z,99201.91
2022-10-20T23:11:36.774Z,99203.38
2022-10-20T23:14:07.016Z,99208.84
2022-10-20T23:16:34.533Z,99208.81
2022-10-20T23:19:02.091Z,99209.56
2022-10-20T23:21:32.596Z,99201.72
2022-10-20T23:24:00.186Z,99201.22
2022-10-20T23:26:31.913Z,99197.56
2022-10-20T23:29:02.214Z,99209.53
2022-10-20T23:31:32.774Z,99211.72
2022-10-20T23:34:00.262Z,99207.53
2022-10-20T23:36:27.784Z,99212.78
2022-10-20T23:38:55.260Z,99215.50
2022-10-20T23:41:22.845Z,99211.81
2022-10-20T23:43:51.910Z,99205.63
2022-10-20T23:46:19.384Z,99192.72
2022-10-20T23:48:49.253Z,99203.44
2022-10-20T23:51:18.455Z,99208.09
2022-10-20T23:53:45.906Z,99195.16
2022-10-20T23:56:13.368Z,99180.72
2022-10-20T23:58:43.276Z,99179.63
